Terminal Aerodrome Forecast
Issued by NWS

Home | Current Version | Previous Version | Text Only | Print | Product List | Glossary On
Versions: 1 2 3 4 5 6 7 8 9 10 11 12 13 14 15 16 17 18 19
293
FTUS45 KTFX 240536
TAFCTB
TAF
KCTB 240536Z 2406/2506 25030G38KT 5SM BLSN BKN090
      TEMPO 2406/2409 2SM BLSN
     FM240900 25021G34KT P6SM SCT090 BKN130
     FM241300 26016G26KT P6SM SCT130=

USA.gov is the U.S. government's official web portal to all federal, state and local government web resources and services.